createdAt,value
2022-08-24T00:01:24.774Z,20.50
2022-08-24T00:03:55.325Z,20.46
2022-08-24T00:06:25.859Z,20.44
2022-08-24T00:08:54.517Z,20.44
2022-08-24T00:11:22.131Z,20.39
2022-08-24T00:13:50.216Z,20.35
2022-08-24T00:16:18.278Z,20.23
2022-08-24T00:18:47.066Z,20.20
2022-08-24T00:21:14.847Z,20.22
2022-08-24T00:23:42.383Z,20.20
2022-08-24T00:26:10.420Z,20.14
2022-08-24T00:28:38.298Z,20.12
2022-08-24T00:31:08.306Z,20.02
2022-08-24T00:33:36.345Z,20.00
2022-08-24T00:36:05.207Z,20.08
2022-08-24T00:38:35.554Z,20.02
2022-08-24T00:41:03.683Z,19.93
2022-08-24T00:43:31.501Z,19.98
2022-08-24T00:46:14.312Z,20.13
2022-08-24T00:48:48.095Z,20.18
2022-08-24T00:51:20.360Z,20.02
2022-08-24T00:53:53.043Z,20.05
2022-08-24T00:56:45.165Z,19.98
2022-08-24T00:59:18.352Z,19.89
2022-08-24T01:01:47.619Z,19.94
2022-08-24T01:04:29.091Z,19.95
2022-08-24T01:06:57.815Z,19.89
2022-08-24T01:09:26.104Z,19.92
2022-08-24T01:11:53.838Z,19.92
2022-08-24T01:14:24.124Z,19.89
2022-08-24T01:17:09.940Z,19.87
2022-08-24T01:19:42.446Z,19.78
2022-08-24T01:22:21.680Z,19.77
2022-08-24T01:24:48.989Z,19.70
2022-08-24T01:27:17.444Z,19.70
2022-08-24T01:29:48.031Z,19.67
2022-08-24T01:32:15.594Z,19.75
2022-08-24T01:34:43.412Z,19.76
2022-08-24T01:37:12.849Z,19.73
2022-08-24T01:39:45.112Z,19.67
2022-08-24T01:42:14.450Z,19.70
2022-08-24T01:44:46.133Z,19.65
2022-08-24T01:47:16.615Z,19.62
2022-08-24T01:49:49.533Z,19.58
2022-08-24T01:52:23.889Z,19.53
2022-08-24T01:54:53.929Z,19.47
2022-08-24T01:57:25.870Z,19.52
2022-08-24T01:59:53.425Z,19.54
2022-08-24T02:02:27.968Z,19.45
2022-08-24T02:04:55.843Z,19.39
2022-08-24T02:07:23.359Z,19.39
2022-08-24T02:09:51.036Z,19.44
2022-08-24T02:12:20.026Z,19.34
2022-08-24T02:14:47.660Z,19.34
2022-08-24T02:17:15.336Z,19.37
2022-08-24T02:19:43.220Z,19.35
2022-08-24T02:22:10.847Z,19.34
2022-08-24T02:24:39.158Z,19.23
2022-08-24T02:27:06.972Z,19.20
2022-08-24T02:29:35.864Z,19.23
2022-08-24T02:32:04.138Z,19.18
2022-08-24T02:34:31.387Z,19.16
2022-08-24T02:36:58.703Z,19.14
2022-08-24T02:39:26.250Z,19.08
2022-08-24T02:41:55.112Z,19.09
2022-08-24T02:44:22.767Z,19.06
2022-08-24T02:46:50.114Z,18.93
2022-08-24T02:49:21.293Z,18.91
2022-08-24T02:51:49.556Z,18.97
2022-08-24T02:54:19.912Z,19.01
2022-08-24T02:56:49.998Z,19.02
2022-08-24T02:59:17.712Z,18.95
2022-08-24T03:01:45.631Z,19.01
2022-08-24T03:04:14.339Z,19.00
2022-08-24T03:06:42.381Z,18.90
2022-08-24T03:09:10.131Z,18.84
2022-08-24T03:11:37.880Z,18.80
2022-08-24T03:14:06.543Z,18.89
2022-08-24T03:16:35.672Z,18.84
2022-08-24T03:19:03.031Z,18.83
2022-08-24T03:21:34.004Z,18.77
2022-08-24T03:24:02.559Z,18.79
2022-08-24T03:26:30.076Z,18.84
2022-08-24T03:28:57.364Z,18.84
2022-08-24T03:31:26.812Z,18.85
2022-08-24T03:33:54.095Z,18.82
2022-08-24T03:36:22.130Z,18.74
2022-08-24T03:38:50.554Z,18.70
2022-08-24T03:41:19.128Z,18.68
2022-08-24T03:43:46.630Z,18.68
2022-08-24T03:46:25.078Z,18.61
2022-08-24T03:48:54.589Z,18.66
2022-08-24T03:51:26.144Z,18.61
2022-08-24T03:53:55.999Z,18.49
2022-08-24T03:56:26.350Z,18.46
2022-08-24T03:58:54.041Z,18.46
2022-08-24T04:01:22.992Z,18.45
2022-08-24T04:03:53.374Z,18.45
2022-08-24T04:06:23.754Z,18.37
2022-08-24T04:08:52.358Z,18.33
2022-08-24T04:11:25.623Z,18.27
2022-08-24T04:13:56.545Z,18.24
2022-08-24T04:16:25.924Z,18.16
2022-08-24T04:19:14.067Z,18.13
2022-08-24T04:21:41.527Z,18.15
2022-08-24T04:24:10.448Z,18.23
2022-08-24T04:26:45.743Z,18.22
2022-08-24T04:29:17.513Z,18.03
2022-08-24T04:31:53.981Z,17.87
2022-08-24T04:34:22.822Z,17.98
2022-08-24T04:36:51.327Z,18.04
2022-08-24T04:39:18.867Z,18.02
2022-08-24T04:42:03.100Z,18.02
2022-08-24T04:44:34.499Z,18.02
2022-08-24T04:47:01.837Z,18.04
2022-08-24T04:49:30.556Z,18.48
2022-08-24T04:51:58.383Z,18.82
2022-08-24T04:54:26.198Z,19.00
2022-08-24T04:57:05.642Z,19.15
2022-08-24T04:59:33.870Z,19.48
2022-08-24T05:02:01.875Z,19.69
2022-08-24T05:04:29.183Z,19.82
2022-08-24T05:06:58.890Z,20.02
2022-08-24T05:09:26.135Z,20.19
2022-08-24T05:11:55.592Z,20.28
2022-08-24T05:14:29.080Z,20.37
2022-08-24T05:16:56.766Z,20.61
2022-08-24T05:19:25.011Z,20.70
2022-08-24T05:21:52.576Z,21.05
2022-08-24T05:24:20.439Z,21.26
2022-08-24T05:26:47.980Z,21.39
2022-08-24T05:29:18.980Z,21.68
2022-08-24T05:31:49.907Z,22.09
2022-08-24T05:34:18.433Z,22.39
2022-08-24T05:36:46.583Z,21.96
2022-08-24T05:39:34.087Z,21.38
2022-08-24T05:42:07.037Z,21.15
2022-08-24T05:44:37.623Z,21.01
2022-08-24T05:47:05.144Z,20.94
2022-08-24T05:49:32.402Z,20.86
2022-08-24T05:52:00.088Z,20.75
2022-08-24T05:54:27.723Z,20.78
2022-08-24T05:57:04.722Z,20.75
2022-08-24T05:59:38.494Z,20.81
2022-08-24T06:02:14.541Z,20.90
2022-08-24T06:04:42.359Z,20.92
2022-08-24T06:07:11.469Z,21.11
2022-08-24T06:09:43.128Z,21.23
2022-08-24T06:12:14.526Z,21.21
2022-08-24T06:14:47.846Z,21.24
2022-08-24T06:17:18.598Z,21.58
2022-08-24T06:19:46.245Z,22.02
2022-08-24T06:22:13.528Z,22.20
2022-08-24T06:25:00.092Z,22.24
2022-08-24T06:27:29.086Z,22.35
2022-08-24T06:30:09.527Z,22.33
2022-08-24T06:32:44.076Z,22.16
2022-08-24T06:35:19.264Z,22.20
2022-08-24T06:37:46.623Z,21.94
2022-08-24T06:40:13.984Z,21.60
2022-08-24T06:42:41.389Z,21.50
2022-08-24T06:45:22.142Z,21.71
2022-08-24T06:47:50.563Z,21.81
2022-08-24T06:50:19.108Z,21.89
2022-08-24T06:52:49.524Z,22.23
2022-08-24T06:55:17.048Z,22.59
2022-08-24T06:57:45.495Z,22.51
2022-08-24T07:00:15.175Z,22.48
2022-08-24T07:02:42.946Z,22.53
2022-08-24T07:05:11.632Z,22.63
2022-08-24T07:08:05.812Z,22.80
2022-08-24T07:10:34.746Z,23.16
2022-08-24T07:13:02.338Z,23.41
2022-08-24T07:15:29.927Z,23.28
2022-08-24T07:18:10.118Z,23.51
2022-08-24T07:20:41.659Z,23.48
2022-08-24T07:23:41.254Z,23.40
2022-08-24T07:26:21.690Z,23.43
2022-08-24T07:29:46.987Z,23.34
2022-08-24T07:32:10.269Z,23.52
2022-08-24T07:34:40.656Z,23.43
2022-08-24T07:37:08.684Z,23.37
2022-08-24T07:39:39.606Z,23.45
2022-08-24T07:42:20.775Z,23.41
2022-08-24T07:44:52.085Z,23.53
2022-08-24T07:47:38.772Z,23.53
2022-08-24T07:50:17.386Z,23.74
2022-08-24T07:52:46.020Z,23.96
2022-08-24T07:55:14.655Z,24.09
2022-08-24T07:57:45.098Z,24.15
2022-08-24T08:00:16.764Z,24.13
2022-08-24T08:02:49.434Z,24.14
2022-08-24T08:05:20.552Z,24.28
2022-08-24T08:07:52.442Z,24.33
2022-08-24T08:10:21.848Z,24.48
2022-08-24T08:12:50.026Z,24.61
2022-08-24T08:15:17.254Z,24.74
2022-08-24T08:17:56.080Z,24.84
2022-08-24T08:20:24.686Z,24.91
2022-08-24T08:23:11.138Z,24.96
2022-08-24T08:25:38.696Z,24.92
2022-08-24T08:28:25.456Z,24.94
2022-08-24T08:30:54.202Z,25.05
2022-08-24T08:33:21.491Z,25.14
2022-08-24T08:35:49.646Z,25.04
2022-08-24T08:38:17.063Z,25.12
2022-08-24T08:41:10.593Z,25.16
2022-08-24T08:44:02.084Z,25.19
2022-08-24T08:46:54.007Z,25.16
2022-08-24T08:50:15.056Z,25.27
2022-08-24T08:52:57.963Z,25.36
2022-08-24T08:56:03.120Z,25.42
2022-08-24T08:59:07.607Z,25.25
2022-08-24T09:02:20.592Z,25.37
2022-08-24T09:04:56.394Z,25.45
2022-08-24T09:07:45.064Z,25.53
2022-08-24T09:10:32.521Z,25.59
2022-08-24T09:13:14.857Z,25.73
2022-08-24T09:16:16.799Z,25.73
2022-08-24T09:19:31.857Z,25.78
2022-08-24T09:22:07.114Z,25.84
2022-08-24T09:24:52.920Z,25.84
2022-08-24T09:28:00.454Z,25.91
2022-08-24T09:30:40.920Z,25.99
2022-08-24T09:33:12.283Z,26.11
2022-08-24T09:36:01.059Z,26.07
2022-08-24T09:38:59.385Z,26.07
2022-08-24T09:41:54.778Z,26.12
2022-08-24T09:44:53.133Z,26.21
2022-08-24T09:47:42.521Z,26.48
2022-08-24T09:50:41.296Z,26.39
2022-08-24T09:53:32.311Z,26.52
2022-08-24T09:56:31.979Z,26.45
2022-08-24T09:58:59.358Z,26.69
2022-08-24T10:01:57.888Z,26.59
2022-08-24T10:05:05.059Z,26.63
2022-08-24T10:08:53.867Z,26.59
2022-08-24T10:12:29.031Z,26.64
2022-08-24T10:15:39.304Z,26.75
2022-08-24T10:21:56.782Z,26.93
2022-08-24T10:25:13.711Z,27.04
2022-08-24T10:28:46.897Z,26.98
2022-08-24T10:32:24.192Z,27.14
2022-08-24T10:35:32.418Z,27.23
2022-08-24T10:39:15.137Z,27.18
2022-08-24T10:42:05.332Z,27.22
2022-08-24T10:54:18.262Z,27.22
2022-08-24T10:57:38.867Z,27.37
2022-08-24T11:00:47.519Z,27.27
2022-08-24T11:04:09.341Z,27.27
2022-08-24T11:11:07.315Z,27.29
2022-08-24T11:17:53.529Z,27.27
2022-08-24T11:27:08.504Z,27.27
2022-08-24T11:30:11.090Z,27.19
2022-08-24T11:33:49.807Z,27.14
2022-08-24T11:37:29.164Z,27.17
2022-08-24T11:40:49.389Z,27.41
2022-08-24T11:44:37.918Z,27.29
2022-08-24T11:47:53.900Z,27.54
2022-08-24T11:54:57.394Z,27.51
2022-08-24T12:02:18.453Z,27.51
2022-08-24T12:05:52.192Z,27.84
2022-08-24T12:09:13.641Z,27.88
2022-08-24T12:12:25.644Z,27.67
2022-08-24T12:15:49.964Z,27.50
2022-08-24T12:19:32.946Z,27.55
2022-08-24T12:23:14.164Z,27.49
2022-08-24T12:26:30.341Z,27.53
2022-08-24T12:37:32.576Z,27.73
2022-08-24T12:40:38.195Z,27.67
2022-08-24T12:51:26.440Z,27.68
2022-08-24T12:55:12.131Z,27.66
2022-08-24T12:59:00.720Z,27.89
2022-08-24T13:06:25.872Z,27.76
2022-08-24T13:10:02.066Z,27.71
2022-08-24T13:16:44.729Z,27.83
2022-08-24T13:19:55.403Z,27.76
2022-08-24T13:30:50.342Z,27.81
2022-08-24T13:34:22.975Z,27.82
2022-08-24T13:37:36.074Z,27.97
2022-08-24T13:41:13.290Z,28.02
2022-08-24T13:44:44.995Z,28.66
2022-08-24T13:47:48.259Z,28.20
2022-08-24T13:50:33.535Z,28.20
2022-08-24T13:53:06.525Z,28.27
2022-08-24T13:56:11.597Z,28.09
2022-08-24T13:58:53.451Z,28.13
2022-08-24T14:01:35.925Z,28.40
2022-08-24T14:04:19.758Z,28.52
2022-08-24T14:06:55.914Z,28.25
2022-08-24T14:09:56.931Z,28.47
2022-08-24T14:12:24.296Z,29.76
2022-08-24T14:15:12.206Z,29.11
2022-08-24T14:17:55.640Z,28.68
2022-08-24T14:20:41.720Z,28.46
2022-08-24T14:23:17.806Z,28.86
2022-08-24T14:25:46.928Z,28.87
2022-08-24T14:28:40.845Z,28.70
2022-08-24T14:31:14.281Z,28.59
2022-08-24T14:33:53.607Z,28.51
2022-08-24T14:36:31.932Z,28.60
2022-08-24T14:39:09.727Z,28.61
2022-08-24T14:42:13.577Z,28.59
2022-08-24T14:45:02.800Z,28.70
2022-08-24T14:47:35.817Z,28.83
2022-08-24T14:50:17.321Z,28.73
2022-08-24T14:53:26.964Z,28.71
2022-08-24T14:56:07.468Z,28.77
2022-08-24T14:59:11.846Z,29.09
2022-08-24T15:01:44.760Z,29.22
2022-08-24T15:04:38.129Z,29.11
2022-08-24T15:07:20.916Z,28.99
2022-08-24T15:09:49.267Z,28.99
2022-08-24T15:12:31.952Z,29.05
2022-08-24T15:15:10.361Z,29.13
2022-08-24T15:17:47.984Z,29.23
2022-08-24T15:20:20.778Z,29.18
2022-08-24T15:22:58.404Z,29.39
2022-08-24T15:25:47.989Z,29.68
2022-08-24T15:28:28.417Z,29.89
2022-08-24T15:31:08.959Z,29.99
2022-08-24T15:33:52.573Z,30.21
2022-08-24T15:36:20.440Z,30.44
2022-08-24T15:38:48.191Z,30.68
2022-08-24T15:41:20.464Z,31.19
2022-08-24T15:43:47.627Z,30.90
2022-08-24T15:46:20.035Z,30.74
2022-08-24T15:48:49.151Z,30.80
2022-08-24T15:51:42.603Z,30.71
2022-08-24T15:54:31.414Z,30.51
2022-08-24T15:57:18.892Z,29.83
2022-08-24T15:59:49.428Z,29.47
2022-08-24T16:02:25.684Z,28.96
2022-08-24T16:05:14.350Z,28.75
2022-08-24T16:08:06.749Z,28.69
2022-08-24T16:10:52.736Z,28.69
2022-08-24T16:13:25.859Z,28.48
2022-08-24T16:15:57.119Z,28.42
2022-08-24T16:18:29.736Z,28.46
2022-08-24T16:20:59.234Z,28.39
2022-08-24T16:23:31.624Z,28.25
2022-08-24T16:26:23.474Z,28.31
2022-08-24T16:28:52.223Z,28.28
2022-08-24T16:31:41.139Z,28.20
2022-08-24T16:34:28.921Z,28.19
2022-08-24T16:36:56.741Z,28.27
2022-08-24T16:39:24.322Z,28.38
2022-08-24T16:41:57.298Z,28.29
2022-08-24T16:44:28.127Z,28.28
2022-08-24T16:46:55.373Z,28.29
2022-08-24T16:49:22.873Z,28.27
2022-08-24T16:51:50.199Z,28.25
2022-08-24T16:54:17.425Z,28.22
2022-08-24T16:56:44.694Z,28.19
2022-08-24T16:59:24.040Z,28.11
2022-08-24T17:01:51.337Z,28.11
2022-08-24T17:04:18.812Z,28.12
2022-08-24T17:06:49.795Z,28.03
2022-08-24T17:09:18.920Z,28.02
2022-08-24T17:11:47.114Z,27.91
2022-08-24T17:14:16.119Z,27.88
2022-08-24T17:16:43.658Z,27.81
2022-08-24T17:19:14.796Z,27.79
2022-08-24T17:21:44.671Z,27.81
2022-08-24T17:24:12.416Z,27.74
2022-08-24T17:26:44.941Z,27.77
2022-08-24T17:29:18.480Z,27.81
2022-08-24T17:31:49.906Z,27.77
2022-08-24T17:34:21.260Z,27.74
2022-08-24T17:36:54.203Z,27.69
2022-08-24T17:39:24.015Z,27.63
2022-08-24T17:41:56.127Z,27.68
2022-08-24T17:44:26.899Z,27.62
2022-08-24T17:46:57.705Z,27.55
2022-08-24T17:49:26.183Z,27.50
2022-08-24T17:51:55.348Z,27.47
2022-08-24T17:54:23.038Z,27.42
2022-08-24T17:56:51.298Z,27.38
2022-08-24T17:59:25.940Z,27.30
2022-08-24T18:01:58.956Z,27.32
2022-08-24T18:04:29.855Z,27.35
2022-08-24T18:06:58.769Z,27.36
2022-08-24T18:09:30.850Z,27.29
2022-08-24T18:12:03.855Z,27.21
2022-08-24T18:14:32.539Z,27.11
2022-08-24T18:17:02.463Z,27.11
2022-08-24T18:19:31.743Z,27.11
2022-08-24T18:21:59.029Z,27.09
2022-08-24T18:24:26.380Z,27.04
2022-08-24T18:26:53.692Z,26.97
2022-08-24T18:29:21.606Z,26.88
2022-08-24T18:31:49.598Z,26.92
2022-08-24T18:34:21.057Z,26.83
2022-08-24T18:36:49.306Z,26.85
2022-08-24T18:39:17.145Z,26.83
2022-08-24T18:41:49.215Z,26.73
2022-08-24T18:44:20.495Z,26.77
2022-08-24T18:46:48.925Z,26.81
2022-08-24T18:49:18.120Z,26.75
2022-08-24T18:51:48.129Z,26.74
2022-08-24T18:54:19.112Z,26.75
2022-08-24T18:56:47.255Z,26.77
2022-08-24T18:59:16.025Z,26.74
2022-08-24T19:02:02.803Z,26.66
2022-08-24T19:04:33.182Z,26.56
2022-08-24T19:07:01.017Z,26.44
2022-08-24T19:09:33.470Z,26.25
2022-08-24T19:12:03.438Z,26.06
2022-08-24T19:14:31.319Z,25.94
2022-08-24T19:16:58.541Z,25.83
2022-08-24T19:19:25.800Z,25.48
2022-08-24T19:21:54.033Z,25.23
2022-08-24T19:24:26.205Z,25.07
2022-08-24T19:26:54.120Z,24.98
2022-08-24T19:29:38.908Z,24.91
2022-08-24T19:32:19.888Z,24.90
2022-08-24T19:34:51.342Z,24.81
2022-08-24T19:37:19.155Z,24.65
2022-08-24T19:39:47.924Z,24.63
2022-08-24T19:42:17.551Z,24.55
2022-08-24T19:45:04.477Z,24.62
2022-08-24T19:47:34.302Z,24.59
2022-08-24T19:50:04.218Z,24.50
2022-08-24T19:52:32.659Z,24.29
2022-08-24T19:55:00.793Z,24.18
2022-08-24T19:57:33.776Z,24.11
2022-08-24T20:00:25.748Z,23.91
2022-08-24T20:02:55.774Z,24.05
2022-08-24T20:05:26.105Z,24.05
2022-08-24T20:07:53.947Z,24.07
2022-08-24T20:10:23.389Z,24.11
2022-08-24T20:12:51.688Z,24.15
2022-08-24T20:15:19.788Z,24.28
2022-08-24T20:17:48.770Z,24.46
2022-08-24T20:20:19.709Z,24.56
2022-08-24T20:22:47.035Z,24.45
2022-08-24T20:25:14.745Z,24.28
2022-08-24T20:27:45.649Z,24.16
2022-08-24T20:30:14.024Z,24.16
2022-08-24T20:32:41.505Z,24.06
2022-08-24T20:35:09.884Z,23.96
2022-08-24T20:37:40.618Z,23.95
2022-08-24T20:40:13.016Z,23.89
2022-08-24T20:42:41.452Z,23.98
2022-08-24T20:45:13.986Z,23.95
2022-08-24T20:47:52.371Z,23.74
2022-08-24T20:50:23.594Z,23.50
2022-08-24T20:52:52.559Z,23.31
2022-08-24T20:55:21.767Z,23.25
2022-08-24T20:57:56.038Z,23.24
2022-08-24T21:00:24.147Z,23.26
2022-08-24T21:02:52.343Z,23.31
2022-08-24T21:05:19.607Z,23.30
2022-08-24T21:07:50.105Z,23.32
2022-08-24T21:10:21.399Z,23.34
2022-08-24T21:12:52.444Z,23.36
2022-08-24T21:15:22.376Z,23.28
2022-08-24T21:17:50.304Z,23.21
2022-08-24T21:20:19.424Z,23.36
2022-08-24T21:22:46.811Z,23.43
2022-08-24T21:25:14.752Z,23.26
2022-08-24T21:27:44.082Z,23.16
2022-08-24T21:30:15.996Z,23.05
2022-08-24T21:33:02.425Z,22.89
2022-08-24T21:35:30.011Z,22.82
2022-08-24T21:37:59.008Z,22.71
2022-08-24T21:40:26.834Z,22.74
2022-08-24T21:42:54.254Z,22.64
2022-08-24T21:45:21.737Z,22.70
2022-08-24T21:47:49.681Z,22.57
2022-08-24T21:50:18.312Z,22.57
2022-08-24T21:52:45.557Z,22.67
2022-08-24T21:55:18.432Z,22.75
2022-08-24T21:57:45.651Z,22.58
2022-08-24T22:00:18.340Z,22.50
2022-08-24T22:02:47.361Z,22.33
2022-08-24T22:05:16.426Z,22.29
2022-08-24T22:07:44.476Z,22.33
2022-08-24T22:10:13.173Z,22.31
2022-08-24T22:12:41.436Z,22.32
2022-08-24T22:15:13.164Z,22.38
2022-08-24T22:17:40.548Z,22.56
2022-08-24T22:20:21.548Z,22.58
2022-08-24T22:22:51.228Z,22.54
2022-08-24T22:25:18.480Z,22.48
2022-08-24T22:27:46.683Z,22.64
2022-08-24T22:30:16.672Z,22.90
2022-08-24T22:32:45.107Z,22.98
2022-08-24T22:35:12.664Z,23.18
2022-08-24T22:37:40.061Z,22.95
2022-08-24T22:40:12.331Z,22.82
2022-08-24T22:42:40.385Z,23.10
2022-08-24T22:45:09.743Z,23.21
2022-08-24T22:47:37.297Z,23.23
2022-08-24T22:50:06.696Z,22.95
2022-08-24T22:52:34.255Z,22.61
2022-08-24T22:55:01.754Z,22.46
2022-08-24T22:57:30.369Z,22.44
2022-08-24T22:59:57.992Z,22.17
2022-08-24T23:02:25.279Z,21.86
2022-08-24T23:04:53.251Z,21.89
2022-08-24T23:07:20.834Z,21.68
2022-08-24T23:09:48.187Z,21.62
2022-08-24T23:12:21.612Z,21.28
2022-08-24T23:14:52.834Z,21.03
2022-08-24T23:17:21.124Z,21.13
2022-08-24T23:20:02.007Z,21.43
2022-08-24T23:22:32.981Z,21.78
2022-08-24T23:25:01.423Z,21.85
2022-08-24T23:27:37.599Z,21.62
2022-08-24T23:30:09.439Z,21.53
2022-08-24T23:32:36.913Z,21.58
2022-08-24T23:35:04.729Z,21.61
2022-08-24T23:37:32.131Z,21.56
2022-08-24T23:39:59.612Z,21.58
2022-08-24T23:42:26.899Z,21.58
2022-08-24T23:44:54.307Z,21.44
2022-08-24T23:47:22.315Z,21.32
2022-08-24T23:49:51.002Z,21.23
2022-08-24T23:52:28.244Z,21.34
2022-08-24T23:55:21.614Z,21.41
2022-08-24T23:57:47.098Z,21.55
